sensor_id;sensor_type;location;lat;lon;timestamp;pressure;altitude;pressure_sealevel;temperature;humidity
70304;BME280;57712;48.752;11.348;2023-02-19T00:01:08;97962.81;;;9.91;100.00
70304;BME280;57712;48.752;11.348;2023-02-19T00:03:37;97958.16;;;9.84;100.00
70304;BME280;57712;48.752;11.348;2023-02-19T00:06:06;97958.91;;;9.84;100.00
70304;BME280;57712;48.752;11.348;2023-02-19T00:08:33;97956.50;;;9.94;100.00
70304;BME280;57712;48.752;11.348;2023-02-19T00:11:06;97956.19;;;9.84;100.00
70304;BME280;57712;48.752;11.348;2023-02-19T00:13:41;97953.09;;;9.79;100.00
70304;BME280;57712;48.752;11.348;2023-02-19T00:18:40;97949.16;;;9.83;100.00
70304;BME280;57712;48.752;11.348;2023-02-19T00:21:07;97957.41;;;9.76;100.00
70304;BME280;57712;48.752;11.348;2023-02-19T00:23:35;97952.75;;;9.73;100.00
70304;BME280;57712;48.752;11.348;2023-02-19T00:26:03;97958.19;;;9.80;100.00
70304;BME280;57712;48.752;11.348;2023-02-19T00:28:44;97956.59;;;9.79;100.00
70304;BME280;57712;48.752;11.348;2023-02-19T00:31:17;97957.84;;;9.68;100.00
70304;BME280;57712;48.752;11.348;2023-02-19T00:33:45;97955.84;;;9.75;100.00
70304;BME280;57712;48.752;11.348;2023-02-19T00:36:13;97952.78;;;9.66;100.00
70304;BME280;57712;48.752;11.348;2023-02-19T00:38:41;97954.75;;;9.69;100.00
70304;BME280;57712;48.752;11.348;2023-02-19T00:41:08;97949.63;;;9.75;100.00
70304;BME280;57712;48.752;11.348;2023-02-19T00:44:05;97950.41;;;9.72;100.00
70304;BME280;57712;48.752;11.348;2023-02-19T00:46:35;97948.50;;;9.65;100.00
70304;BME280;57712;48.752;11.348;2023-02-19T00:49:03;97943.41;;;9.67;100.00
70304;BME280;57712;48.752;11.348;2023-02-19T00:51:34;97945.81;;;9.58;100.00
70304;BME280;57712;48.752;11.348;2023-02-19T00:54:02;97940.34;;;9.62;100.00
70304;BME280;57712;48.752;11.348;2023-02-19T00:56:29;97938.78;;;9.61;100.00
70304;BME280;57712;48.752;11.348;2023-02-19T00:58:55;97939.19;;;9.59;100.00
70304;BME280;57712;48.752;11.348;2023-02-19T01:01:22;97941.84;;;9.70;100.00
70304;BME280;57712;48.752;11.348;2023-02-19T01:03:49;97948.09;;;9.67;100.00
70304;BME280;57712;48.752;11.348;2023-02-19T01:06:17;97942.63;;;9.70;100.00
70304;BME280;57712;48.752;11.348;2023-02-19T01:08:45;97945.00;;;9.65;100.00
70304;BME280;57712;48.752;11.348;2023-02-19T01:11:12;97934.78;;;9.69;100.00
70304;BME280;57712;48.752;11.348;2023-02-19T01:13:39;97930.13;;;9.69;100.00
70304;BME280;57712;48.752;11.348;2023-02-19T01:16:15;97930.50;;;9.71;100.00
70304;BME280;57712;48.752;11.348;2023-02-19T01:18:43;97926.97;;;9.71;100.00
70304;BME280;57712;48.752;11.348;2023-02-19T01:21:17;97930.16;;;9.62;100.00
70304;BME280;57712;48.752;11.348;2023-02-19T01:23:43;97924.59;;;9.76;100.00
70304;BME280;57712;48.752;11.348;2023-02-19T01:26:13;97922.34;;;9.64;100.00
70304;BME280;57712;48.752;11.348;2023-02-19T01:28:40;97933.31;;;9.61;100.00
70304;BME280;57712;48.752;11.348;2023-02-19T01:31:09;97921.97;;;9.62;100.00
70304;BME280;57712;48.752;11.348;2023-02-19T01:33:38;97922.38;;;9.57;100.00
70304;BME280;57712;48.752;11.348;2023-02-19T01:36:05;97908.41;;;9.44;100.00
70304;BME280;57712;48.752;11.348;2023-02-19T01:38:32;97917.75;;;9.50;100.00
70304;BME280;57712;48.752;11.348;2023-02-19T01:41:03;97919.84;;;9.29;100.00
70304;BME280;57712;48.752;11.348;2023-02-19T01:43:32;97922.63;;;9.14;100.00
70304;BME280;57712;48.752;11.348;2023-02-19T01:45:59;97918.00;;;9.04;100.00
70304;BME280;57712;48.752;11.348;2023-02-19T01:48:29;97915.69;;;8.99;100.00
70304;BME280;57712;48.752;11.348;2023-02-19T01:51:02;97911.00;;;9.00;100.00
70304;BME280;57712;48.752;11.348;2023-02-19T01:53:33;97914.56;;;8.89;100.00
70304;BME280;57712;48.752;11.348;2023-02-19T01:56:02;97911.06;;;8.89;100.00
70304;BME280;57712;48.752;11.348;2023-02-19T01:58:32;97900.16;;;8.82;100.00
70304;BME280;57712;48.752;11.348;2023-02-19T02:01:01;97902.53;;;8.73;100.00
70304;BME280;57712;48.752;11.348;2023-02-19T02:03:30;97902.50;;;8.80;100.00
70304;BME280;57712;48.752;11.348;2023-02-19T02:06:13;97906.47;;;8.61;100.00
70304;BME280;57712;48.752;11.348;2023-02-19T02:08:42;97904.91;;;8.63;100.00
70304;BME280;57712;48.752;11.348;2023-02-19T02:11:28;97896.34;;;8.54;100.00
70304;BME280;57712;48.752;11.348;2023-02-19T02:13:56;97882.31;;;8.59;100.00
70304;BME280;57712;48.752;11.348;2023-02-19T02:16:29;97879.56;;;8.59;100.00
70304;BME280;57712;48.752;11.348;2023-02-19T02:28:27;97882.31;;;8.59;100.00
70304;BME280;57712;48.752;11.348;2023-02-19T02:31:08;97872.94;;;8.60;100.00
70304;BME280;57712;48.752;11.348;2023-02-19T02:33:48;97851.84;;;8.64;100.00
70304;BME280;57712;48.752;11.348;2023-02-19T02:36:28;97833.88;;;8.71;100.00
70304;BME280;57712;48.752;11.348;2023-02-19T02:38:56;97840.91;;;8.64;100.00
70304;BME280;57712;48.752;11.348;2023-02-19T02:41:24;97823.00;;;8.63;100.00
70304;BME280;57712;48.752;11.348;2023-02-19T02:44:01;97827.28;;;8.64;100.00
70304;BME280;57712;48.752;11.348;2023-02-19T02:46:33;97845.28;;;8.55;100.00
70304;BME280;57712;48.752;11.348;2023-02-19T02:49:04;97843.28;;;8.66;100.00
70304;BME280;57712;48.752;11.348;2023-02-19T02:51:35;97824.50;;;8.72;100.00
70304;BME280;57712;48.752;11.348;2023-02-19T02:54:11;97823.38;;;8.62;100.00
70304;BME280;57712;48.752;11.348;2023-02-19T02:56:58;97826.91;;;8.66;100.00
70304;BME280;57712;48.752;11.348;2023-02-19T02:59:29;97817.19;;;8.58;100.00
70304;BME280;57712;48.752;11.348;2023-02-19T03:02:00;97816.75;;;8.66;100.00
70304;BME280;57712;48.752;11.348;2023-02-19T03:08:14;97807.38;;;8.67;100.00
70304;BME280;57712;48.752;11.348;2023-02-19T03:11:04;97806.56;;;8.71;100.00
70304;BME280;57712;48.752;11.348;2023-02-19T03:14:04;97798.44;;;8.60;100.00
70304;BME280;57712;48.752;11.348;2023-02-19T03:16:50;97818.31;;;8.64;100.00
70304;BME280;57712;48.752;11.348;2023-02-19T03:19:43;97808.97;;;8.54;100.00
70304;BME280;57712;48.752;11.348;2023-02-19T03:22:15;97807.06;;;8.51;100.00
70304;BME280;57712;48.752;11.348;2023-02-19T03:24:53;97797.69;;;8.52;100.00
70304;BME280;57712;48.752;11.348;2023-02-19T03:27:40;97805.91;;;8.49;100.00
70304;BME280;57712;48.752;11.348;2023-02-19T03:30:16;97810.97;;;8.50;100.00
70304;BME280;57712;48.752;11.348;2023-02-19T03:32:57;97805.88;;;8.52;100.00
70304;BME280;57712;48.752;11.348;2023-02-19T03:35:30;97789.56;;;8.45;100.00
70304;BME280;57712;48.752;11.348;2023-02-19T03:38:03;97801.25;;;8.42;100.00
70304;BME280;57712;48.752;11.348;2023-02-19T03:40:40;97797.31;;;8.50;100.00
70304;BME280;57712;48.752;11.348;2023-02-19T03:43:23;97798.13;;;8.47;100.00
70304;BME280;57712;48.752;11.348;2023-02-19T03:46:13;97798.84;;;8.58;100.00
70304;BME280;57712;48.752;11.348;2023-02-19T03:48:49;97787.53;;;8.53;100.00
70304;BME280;57712;48.752;11.348;2023-02-19T03:54:09;97780.91;;;8.57;100.00
70304;BME280;57712;48.752;11.348;2023-02-19T03:56:43;97779.72;;;8.58;100.00
70304;BME280;57712;48.752;11.348;2023-02-19T04:02:22;97774.59;;;8.67;100.00
70304;BME280;57712;48.752;11.348;2023-02-19T04:07:35;97778.88;;;8.68;100.00
70304;BME280;57712;48.752;11.348;2023-02-19T04:10:05;97775.34;;;8.72;100.00
70304;BME280;57712;48.752;11.348;2023-02-19T04:12:35;97773.00;;;8.77;100.00
70304;BME280;57712;48.752;11.348;2023-02-19T04:15:07;97759.72;;;8.79;100.00
70304;BME280;57712;48.752;11.348;2023-02-19T04:17:41;97762.06;;;8.77;100.00
70304;BME280;57712;48.752;11.348;2023-02-19T04:20:12;97769.09;;;8.75;100.00
70304;BME280;57712;48.752;11.348;2023-02-19T04:22:39;97765.94;;;8.80;100.00
70304;BME280;57712;48.752;11.348;2023-02-19T04:25:07;97773.34;;;8.79;100.00
70304;BME280;57712;48.752;11.348;2023-02-19T04:27:38;97775.69;;;8.81;100.00
70304;BME280;57712;48.752;11.348;2023-02-19T04:30:07;97776.06;;;8.83;100.00
70304;BME280;57712;48.752;11.348;2023-02-19T04:32:34;97784.63;;;8.85;100.00
70304;BME280;57712;48.752;11.348;2023-02-19T04:35:01;97786.22;;;8.86;100.00
70304;BME280;57712;48.752;11.348;2023-02-19T04:37:27;97787.75;;;8.83;100.00
70304;BME280;57712;48.752;11.348;2023-02-19T04:39:54;97786.94;;;8.90;100.00
70304;BME280;57712;48.752;11.348;2023-02-19T04:42:20;97797.94;;;8.79;100.00
70304;BME280;57712;48.752;11.348;2023-02-19T04:44:47;97803.44;;;8.76;100.00
70304;BME280;57712;48.752;11.348;2023-02-19T04:47:13;97808.91;;;8.76;100.00
70304;BME280;57712;48.752;11.348;2023-02-19T04:49:44;97812.78;;;8.75;100.00
70304;BME280;57712;48.752;11.348;2023-02-19T04:52:10;97808.53;;;8.70;100.00
70304;BME280;57712;48.752;11.348;2023-02-19T04:54:37;97810.47;;;8.70;100.00
70304;BME280;57712;48.752;11.348;2023-02-19T04:57:04;97807.31;;;8.75;100.00
70304;BME280;57712;48.752;11.348;2023-02-19T04:59:31;97822.16;;;8.74;100.00
70304;BME280;57712;48.752;11.348;2023-02-19T05:01:57;97811.22;;;8.74;100.00
70304;BME280;57712;48.752;11.348;2023-02-19T05:04:24;97815.91;;;8.73;100.00
70304;BME280;57712;48.752;11.348;2023-02-19T05:06:51;97819.03;;;8.79;100.00
70304;BME280;57712;48.752;11.348;2023-02-19T05:09:17;97817.47;;;8.78;100.00
70304;BME280;57712;48.752;11.348;2023-02-19T05:11:44;97815.94;;;8.70;100.00
70304;BME280;57712;48.752;11.348;2023-02-19T05:14:10;97822.16;;;8.74;100.00
70304;BME280;57712;48.752;11.348;2023-02-19T05:16:37;97820.22;;;8.71;100.00
70304;BME280;57712;48.752;11.348;2023-02-19T05:19:03;97808.13;;;8.72;100.00
70304;BME280;57712;48.752;11.348;2023-02-19T05:21:30;97815.50;;;8.75;100.00
70304;BME280;57712;48.752;11.348;2023-02-19T05:23:56;97814.38;;;8.76;100.00
70304;BME280;57712;48.752;11.348;2023-02-19T05:26:23;97826.44;;;8.75;100.00
70304;BME280;57712;48.752;11.348;2023-02-19T05:28:51;97822.16;;;8.74;100.00
70304;BME280;57712;48.752;11.348;2023-02-19T05:31:18;97830.75;;;8.76;100.00
70304;BME280;57712;48.752;11.348;2023-02-19T05:33:45;97835.44;;;8.72;100.00
70304;BME280;57712;48.752;11.348;2023-02-19T05:36:17;97831.53;;;8.73;100.00
70304;BME280;57712;48.752;11.348;2023-02-19T05:38:44;97833.13;;;8.66;100.00
70304;BME280;57712;48.752;11.348;2023-02-19T05:41:19;97837.03;;;8.65;100.00
70304;BME280;57712;48.752;11.348;2023-02-19T05:43:47;97835.09;;;8.62;100.00
70304;BME280;57712;48.752;11.348;2023-02-19T05:46:17;97851.13;;;8.53;100.00
70304;BME280;57712;48.752;11.348;2023-02-19T05:48:46;97840.59;;;8.55;100.00
70304;BME280;57712;48.752;11.348;2023-02-19T05:51:16;97841.38;;;8.52;100.00
70304;BME280;57712;48.752;11.348;2023-02-19T05:53:44;97842.53;;;8.58;100.00
70304;BME280;57712;48.752;11.348;2023-02-19T05:56:33;97840.16;;;8.60;100.00
70304;BME280;57712;48.752;11.348;2023-02-19T05:59:04;97851.88;;;8.54;100.00
70304;BME280;57712;48.752;11.348;2023-02-19T06:01:33;97860.91;;;8.47;100.00
70304;BME280;57712;48.752;11.348;2023-02-19T06:04:00;97866.34;;;8.51;100.00
70304;BME280;57712;48.752;11.348;2023-02-19T06:06:27;97873.38;;;8.55;100.00
70304;BME280;57712;48.752;11.348;2023-02-19T06:08:53;97864.44;;;8.44;100.00
70304;BME280;57712;48.752;11.348;2023-02-19T06:11:20;97884.69;;;8.43;100.00
70304;BME280;57712;48.752;11.348;2023-02-19T06:13:47;97883.97;;;8.35;100.00
70304;BME280;57712;48.752;11.348;2023-02-19T06:16:16;97873.81;;;8.36;100.00
70304;BME280;57712;48.752;11.348;2023-02-19T06:18:44;97881.59;;;8.34;100.00
70304;BME280;57712;48.752;11.348;2023-02-19T06:21:10;97880.78;;;8.33;100.00
70304;BME280;57712;48.752;11.348;2023-02-19T06:23:38;97880.81;;;8.30;100.00
70304;BME280;57712;48.752;11.348;2023-02-19T06:28:41;97884.34;;;8.27;100.00
70304;BME280;57712;48.752;11.348;2023-02-19T06:31:09;97883.16;;;8.28;100.00
70304;BME280;57712;48.752;11.348;2023-02-19T06:33:38;97895.22;;;8.30;100.00
70304;BME280;57712;48.752;11.348;2023-02-19T06:36:13;97883.97;;;8.18;100.00
70304;BME280;57712;48.752;11.348;2023-02-19T06:38:40;97873.03;;;8.18;100.00
70304;BME280;57712;48.752;11.348;2023-02-19T06:41:07;97900.34;;;8.18;100.00
70304;BME280;57712;48.752;11.348;2023-02-19T06:43:35;97905.78;;;8.18;100.00
70304;BME280;57712;48.752;11.348;2023-02-19T06:46:04;97922.91;;;8.22;100.00
70304;BME280;57712;48.752;11.348;2023-02-19T06:48:33;97919.81;;;8.23;100.00
70304;BME280;57712;48.752;11.348;2023-02-19T06:51:00;97918.25;;;8.22;100.00
70304;BME280;57712;48.752;11.348;2023-02-19T06:53:27;97908.91;;;8.23;100.00
70304;BME280;57712;48.752;11.348;2023-02-19T06:56:04;97903.81;;;8.29;100.00
70304;BME280;57712;48.752;11.348;2023-02-19T06:58:32;97913.97;;;8.28;100.00
70304;BME280;57712;48.752;11.348;2023-02-19T07:00:59;97914.34;;;8.30;100.00
70304;BME280;57712;48.752;11.348;2023-02-19T07:03:26;97936.56;;;8.29;100.00
70304;BME280;57712;48.752;11.348;2023-02-19T07:05:53;97948.66;;;8.28;100.00
70304;BME280;57712;48.752;11.348;2023-02-19T07:08:20;97936.94;;;8.31;100.00
70304;BME280;57712;48.752;11.348;2023-02-19T07:10:54;97941.66;;;8.27;100.00
70304;BME280;57712;48.752;11.348;2023-02-19T07:13:22;97948.69;;;8.35;100.00
70304;BME280;57712;48.752;11.348;2023-02-19T07:15:49;97950.19;;;8.32;100.00
70304;BME280;57712;48.752;11.348;2023-02-19T07:18:18;97949.44;;;8.39;100.00
70304;BME280;57712;48.752;11.348;2023-02-19T07:20:44;97954.91;;;8.39;100.00
70304;BME280;57712;48.752;11.348;2023-02-19T07:23:11;97937.78;;;8.35;100.00
70304;BME280;57712;48.752;11.348;2023-02-19T07:25:38;97924.50;;;8.37;100.00
70304;BME280;57712;48.752;11.348;2023-02-19T07:28:05;97936.19;;;8.41;100.00
70304;BME280;57712;48.752;11.348;2023-02-19T07:30:32;97940.88;;;8.44;100.00
70304;BME280;57712;48.752;11.348;2023-02-19T07:32:58;97954.47;;;8.51;100.00
70304;BME280;57712;48.752;11.348;2023-02-19T07:35:25;97954.84;;;8.60;100.00
70304;BME280;57712;48.752;11.348;2023-02-19T07:37:52;97963.81;;;8.64;100.00
70304;BME280;57712;48.752;11.348;2023-02-19T07:40:18;97964.19;;;8.74;100.00
70304;BME280;57712;48.752;11.348;2023-02-19T07:42:45;97977.44;;;8.72;100.00
70304;BME280;57712;48.752;11.348;2023-02-19T07:45:11;97982.13;;;8.71;100.00
70304;BME280;57712;48.752;11.348;2023-02-19T07:47:38;97976.28;;;8.69;100.00
70304;BME280;57712;48.752;11.348;2023-02-19T07:50:05;97971.19;;;8.75;100.00
70304;BME280;57712;48.752;11.348;2023-02-19T07:52:32;97986.41;;;8.83;100.00
70304;BME280;57712;48.752;11.348;2023-02-19T07:54:59;97987.19;;;8.73;100.00
70304;BME280;57712;48.752;11.348;2023-02-19T07:57:27;97989.13;;;8.83;100.00
70304;BME280;57712;48.752;11.348;2023-02-19T07:59:54;97996.94;;;8.88;100.00
70304;BME280;57712;48.752;11.348;2023-02-19T08:02:20;97993.81;;;8.86;100.00
70304;BME280;57712;48.752;11.348;2023-02-19T08:05:05;98000.78;;;8.94;100.00
70304;BME280;57712;48.752;11.348;2023-02-19T08:07:34;97997.66;;;8.99;100.00
70304;BME280;57712;48.752;11.348;2023-02-19T08:10:02;98004.75;;;8.86;100.00
70304;BME280;57712;48.752;11.348;2023-02-19T08:12:58;98001.63;;;8.80;100.00
70304;BME280;57712;48.752;11.348;2023-02-19T08:18:14;97986.75;;;8.99;100.00
70304;BME280;57712;48.752;11.348;2023-02-19T08:20:42;97985.56;;;9.00;100.00
70304;BME280;57712;48.752;11.348;2023-02-19T08:23:10;97989.91;;;8.87;100.00
70304;BME280;57712;48.752;11.348;2023-02-19T08:25:37;97989.91;;;8.80;100.00
70304;BME280;57712;48.752;11.348;2023-02-19T08:28:06;97995.38;;;8.87;100.00
70304;BME280;57712;48.752;11.348;2023-02-19T08:30:33;97992.59;;;8.94;100.00
70304;BME280;57712;48.752;11.348;2023-02-19T08:33:00;98010.13;;;9.11;100.00
70304;BME280;57712;48.752;11.348;2023-02-19T08:35:28;98006.97;;;9.12;100.00
70304;BME280;57712;48.752;11.348;2023-02-19T08:37:56;98011.69;;;9.08;100.00
70304;BME280;57712;48.752;11.348;2023-02-19T08:40:23;98003.44;;;9.22;100.00
70304;BME280;57712;48.752;11.348;2023-02-19T08:42:50;98010.09;;;9.18;100.00
70304;BME280;57712;48.752;11.348;2023-02-19T08:45:17;98008.50;;;9.24;100.00
70304;BME280;57712;48.752;11.348;2023-02-19T08:47:44;98001.06;;;9.32;100.00
70304;BME280;57712;48.752;11.348;2023-02-19T08:50:11;97999.91;;;9.29;100.00
70304;BME280;57712;48.752;11.348;2023-02-19T08:52:37;98012.34;;;9.37;100.00
70304;BME280;57712;48.752;11.348;2023-02-19T08:55:04;98012.34;;;9.41;100.00
70304;BME280;57712;48.752;11.348;2023-02-19T08:57:34;98009.97;;;9.43;100.00
70304;BME280;57712;48.752;11.348;2023-02-19T09:00:04;98021.00;;;9.25;100.00
70304;BME280;57712;48.752;11.348;2023-02-19T09:02:31;98013.91;;;9.35;100.00
70304;BME280;57712;48.752;11.348;2023-02-19T09:04:58;98023.38;;;9.19;100.00
70304;BME280;57712;48.752;11.348;2023-02-19T09:07:24;98033.94;;;9.10;100.00
70304;BME280;57712;48.752;11.348;2023-02-19T09:09:51;98039.78;;;9.05;100.00
70304;BME280;57712;48.752;11.348;2023-02-19T09:12:18;98042.94;;;9.04;100.00
70304;BME280;57712;48.752;11.348;2023-02-19T09:14:45;98044.88;;;9.10;100.00
70304;BME280;57712;48.752;11.348;2023-02-19T09:17:12;98047.25;;;8.94;100.00
70304;BME280;57712;48.752;11.348;2023-02-19T09:19:38;98064.84;;;8.79;100.00
70304;BME280;57712;48.752;11.348;2023-02-19T09:22:05;98076.94;;;8.71;100.00
70304;BME280;57712;48.752;11.348;2023-02-19T09:24:32;98078.91;;;8.59;100.00
70304;BME280;57712;48.752;11.348;2023-02-19T09:26:58;98085.16;;;8.56;100.00
70304;BME280;57712;48.752;11.348;2023-02-19T09:29:26;98084.00;;;8.57;100.00
70304;BME280;57712;48.752;11.348;2023-02-19T09:31:58;98084.38;;;8.52;100.00
70304;BME280;57712;48.752;11.348;2023-02-19T09:34:26;98081.25;;;8.57;100.00
70304;BME280;57712;48.752;11.348;2023-02-19T09:36:53;98079.28;;;8.54;100.00
70304;BME280;57712;48.752;11.348;2023-02-19T09:39:20;98084.38;;;8.70;100.00
70304;BME280;57712;48.752;11.348;2023-02-19T09:41:54;98089.81;;;8.74;100.00
70304;BME280;57712;48.752;11.348;2023-02-19T09:44:32;98087.88;;;8.78;100.00
70304;BME280;57712;48.752;11.348;2023-02-19T09:47:01;98095.66;;;8.83;100.00
70304;BME280;57712;48.752;11.348;2023-02-19T09:49:37;98095.28;;;8.88;100.00
70304;BME280;57712;48.752;11.348;2023-02-19T09:52:13;98081.59;;;9.02;100.00
70304;BME280;57712;48.752;11.348;2023-02-19T09:54:40;98091.34;;;9.07;100.00
70304;BME280;57712;48.752;11.348;2023-02-19T09:57:14;98098.28;;;9.33;100.00
70304;BME280;57712;48.752;11.348;2023-02-19T10:02:22;98102.94;;;9.43;100.00
70304;BME280;57712;48.752;11.348;2023-02-19T10:04:50;98120.53;;;9.49;100.00
70304;BME280;57712;48.752;11.348;2023-02-19T10:07:21;98120.94;;;9.33;100.00
70304;BME280;57712;48.752;11.348;2023-02-19T10:12:25;98137.78;;;9.17;100.00
70304;BME280;57712;48.752;11.348;2023-02-19T10:14:58;98123.28;;;9.31;100.00
70304;BME280;57712;48.752;11.348;2023-02-19T10:17:30;98124.06;;;9.32;100.00
70304;BME280;57712;48.752;11.348;2023-02-19T10:19:57;98132.66;;;9.26;100.00
70304;BME280;57712;48.752;11.348;2023-02-19T10:22:24;98125.56;;;9.47;100.00
70304;BME280;57712;48.752;11.348;2023-02-19T10:24:53;98119.75;;;9.38;100.00
70304;BME280;57712;48.752;11.348;2023-02-19T10:27:20;98116.63;;;9.43;100.00
70304;BME280;57712;48.752;11.348;2023-02-19T10:29:48;98115.06;;;9.49;100.00
70304;BME280;57712;48.752;11.348;2023-02-19T10:32:21;98113.88;;;9.46;100.00
70304;BME280;57712;48.752;11.348;2023-02-19T10:35:10;98105.22;;;9.59;100.00
70304;BME280;57712;48.752;11.348;2023-02-19T10:37:56;98102.03;;;9.74;100.00
70304;BME280;57712;48.752;11.348;2023-02-19T10:40:25;98101.69;;;9.65;100.00
70304;BME280;57712;48.752;11.348;2023-02-19T10:43:00;98107.56;;;9.64;100.00
70304;BME280;57712;48.752;11.348;2023-02-19T10:45:33;98090.03;;;9.50;100.00
70304;BME280;57712;48.752;11.348;2023-02-19T10:48:04;98112.25;;;9.63;100.00
70304;BME280;57712;48.752;11.348;2023-02-19T10:50:35;98103.63;;;9.68;100.00
70304;BME280;57712;48.752;11.348;2023-02-19T10:53:04;98108.25;;;9.78;100.00
70304;BME280;57712;48.752;11.348;2023-02-19T10:55:33;98119.28;;;9.64;100.00
70304;BME280;57712;48.752;11.348;2023-02-19T10:58:25;98105.19;;;9.69;100.00
70304;BME280;57712;48.752;11.348;2023-02-19T11:01:22;98116.47;;;9.82;100.00
70304;BME280;57712;48.752;11.348;2023-02-19T11:03:51;98109.88;;;9.72;100.00
70304;BME280;57712;48.752;11.348;2023-02-19T11:06:24;98116.44;;;9.86;100.00
70304;BME280;57712;48.752;11.348;2023-02-19T11:09:01;98122.59;;;10.00;100.00
70304;BME280;57712;48.752;11.348;2023-02-19T11:11:31;98126.28;;;9.72;100.00
70304;BME280;57712;48.752;11.348;2023-02-19T11:14:02;98118.44;;;9.74;100.00
70304;BME280;57712;48.752;11.348;2023-02-19T11:16:43;98122.38;;;9.70;100.00
70304;BME280;57712;48.752;11.348;2023-02-19T11:19:30;98118.44;;;9.81;100.00
70304;BME280;57712;48.752;11.348;2023-02-19T11:22:00;98118.38;;;9.89;100.00
70304;BME280;57712;48.752;11.348;2023-02-19T11:24:32;98105.03;;;9.98;100.00
70304;BME280;57712;48.752;11.348;2023-02-19T11:27:03;98098.72;;;10.08;100.00
70304;BME280;57712;48.752;11.348;2023-02-19T11:29:31;98103.81;;;10.06;100.00
70304;BME280;57712;48.752;11.348;2023-02-19T11:34:47;98112.22;;;10.44;100.00
70304;BME280;57712;48.752;11.348;2023-02-19T11:37:16;98101.50;;;10.63;100.00
70304;BME280;57712;48.752;11.348;2023-02-19T11:39:46;98098.41;;;10.58;100.00
70304;BME280;57712;48.752;11.348;2023-02-19T11:42:37;98090.50;;;10.67;100.00
70304;BME280;57712;48.752;11.348;2023-02-19T11:53:27;98102.53;;;10.21;100.00
70304;BME280;57712;48.752;11.348;2023-02-19T11:59:26;98104.53;;;10.17;100.00
70304;BME280;57712;48.752;11.348;2023-02-19T12:02:25;98111.16;;;10.27;100.00
70304;BME280;57712;48.752;11.348;2023-02-19T12:12:01;98115.84;;;10.19;100.00
70304;BME280;57712;48.752;11.348;2023-02-19T12:14:23;98106.38;;;10.38;100.00
70304;BME280;57712;48.752;11.348;2023-02-19T12:22:31;98112.41;;;10.67;100.00
70304;BME280;57712;48.752;11.348;2023-02-19T12:34:00;98133.53;;;10.70;100.00
70304;BME280;57712;48.752;11.348;2023-02-19T12:45:15;98163.25;;;10.75;100.00
70304;BME280;57712;48.752;11.348;2023-02-19T12:47:56;98138.44;;;10.45;100.00
70304;BME280;57712;48.752;11.348;2023-02-19T12:50:26;98159.56;;;10.40;100.00
70304;BME280;57712;48.752;11.348;2023-02-19T12:53:08;98153.19;;;10.58;100.00
70304;BME280;57712;48.752;11.348;2023-02-19T12:55:40;98157.22;;;10.43;100.00
70304;BME280;57712;48.752;11.348;2023-02-19T12:58:13;98136.50;;;10.38;100.00
70304;BME280;57712;48.752;11.348;2023-02-19T13:00:54;98158.91;;;10.22;100.00
70304;BME280;57712;48.752;11.348;2023-02-19T13:03:31;98152.31;;;10.05;100.00
70304;BME280;57712;48.752;11.348;2023-02-19T13:06:21;98143.28;;;10.08;100.00
70304;BME280;57712;48.752;11.348;2023-02-19T13:09:02;98155.06;;;9.98;100.00
70304;BME280;57712;48.752;11.348;2023-02-19T13:11:40;98155.81;;;10.13;100.00
70304;BME280;57712;48.752;11.348;2023-02-19T13:14:19;98135.91;;;10.02;100.00
70304;BME280;57712;48.752;11.348;2023-02-19T13:16:52;98135.50;;;10.03;100.00
70304;BME280;57712;48.752;11.348;2023-02-19T13:19:21;98144.09;;;10.05;100.00
70304;BME280;57712;48.752;11.348;2023-02-19T13:21:55;98145.75;;;9.92;100.00
70304;BME280;57712;48.752;11.348;2023-02-19T13:24:44;98168.38;;;9.96;100.00
70304;BME280;57712;48.752;11.348;2023-02-19T13:27:47;98159.38;;;10.03;100.00
70304;BME280;57712;48.752;11.348;2023-02-19T13:30:32;98151.25;;;9.81;100.00
70304;BME280;57712;48.752;11.348;2023-02-19T13:33:22;98142.63;;;9.90;100.00
70304;BME280;57712;48.752;11.348;2023-02-19T13:36:08;98161.38;;;9.92;100.00
70304;BME280;57712;48.752;11.348;2023-02-19T13:38:38;98148.94;;;9.80;100.00
70304;BME280;57712;48.752;11.348;2023-02-19T13:41:16;98149.28;;;9.86;100.00
70304;BME280;57712;48.752;11.348;2023-02-19T13:43:44;98138.03;;;9.69;100.00
70304;BME280;57712;48.752;11.348;2023-02-19T13:46:14;98150.53;;;9.70;100.00
70304;BME280;57712;48.752;11.348;2023-02-19T13:48:42;98170.00;;;9.87;100.00
70304;BME280;57712;48.752;11.348;2023-02-19T13:59:20;98132.25;;;10.33;100.00
70304;BME280;57712;48.752;11.348;2023-02-19T14:04:56;98135.81;;;10.16;100.00
70304;BME280;57712;48.752;11.348;2023-02-19T14:10:54;98120.00;;;10.93;100.00
70304;BME280;57712;48.752;11.348;2023-02-19T14:19:13;98138.19;;;10.10;100.00
70304;BME280;57712;48.752;11.348;2023-02-19T14:21:40;98145.69;;;10.03;100.00
70304;BME280;57712;48.752;11.348;2023-02-19T14:24:13;98162.91;;;9.96;100.00
70304;BME280;57712;48.752;11.348;2023-02-19T14:26:41;98152.34;;;10.02;100.00
70304;BME280;57712;48.752;11.348;2023-02-19T14:29:08;98154.38;;;9.83;100.00
70304;BME280;57712;48.752;11.348;2023-02-19T14:31:38;98153.59;;;9.79;100.00
70304;BME280;57712;48.752;11.348;2023-02-19T14:34:19;98151.66;;;9.76;100.00
70304;BME280;57712;48.752;11.348;2023-02-19T14:36:54;98163.75;;;9.82;100.00
70304;BME280;57712;48.752;11.348;2023-02-19T14:39:29;98159.09;;;9.72;100.00
70304;BME280;57712;48.752;11.348;2023-02-19T14:42:00;98160.66;;;9.80;100.00
70304;BME280;57712;48.752;11.348;2023-02-19T14:44:30;98172.38;;;9.74;100.00
70304;BME280;57712;48.752;11.348;2023-02-19T14:47:10;98163.00;;;9.75;100.00
70304;BME280;57712;48.752;11.348;2023-02-19T14:49:51;98158.25;;;9.90;100.00